Terminal Aerodrome Forecast
Issued by NWS Pueblo, CO

Home | Current Version | Previous Version | Text Only | Print | Product List | Glossary On
Versions: 1 2 3 4 5 6 7 8 9 10 11 12 13 14 15 16 17 18 19 20 21
000
FTUS45 KPUB 232335
TAFCOS
TAF
KCOS 232335Z 2400/2424 18008KT P6SM VCSH SCT060 BKN120
      TEMPO 2400/2401 24015G25KT
     FM240400 29010KT P6SM SCT080 BKN140
     FM240900 33012KT P6SM SCT140
     FM241600 36014KT P6SM SCT080 BKN140
     FM241900 36015G25KT P6SM VCSH SCT040 BKN080=

USA.gov is the U.S. government's official web portal to all federal, state and local government web resources and services.